Time;durP1;ratioP1;P1;durP2;ratioP2;P2;SDS_P1;SDS_P2;PMS_P1;PMS_P2;Temp;Humidity;BMP_temperature;BMP_pressure;BME280_temperature;BME280_humidity;BME280_pressure;Samples;Min_cycle;Max_cycle;Signal;HPM_P1;HPM_P2
2021/06/26 00:00:53;;;;;;;11.43;10.30;;;;;;;;;;3573892;40;20110;-59
2021/06/26 00:03:20;;;;;;;13.43;11.13;;;;;;;;;;3583116;40;20044;-59
2021/06/26 00:05:46;;;;;;;19.88;12.90;;;;;;;;;;3584009;40;20413;-59
2021/06/26 00:08:12;;;;;;;12.25;11.00;;;;;;;;;;3580991;40;20137;-59
2021/06/26 00:10:38;;;;;;;13.98;12.27;;;;;;;;;;3582522;40;20411;-59
2021/06/26 00:13:03;;;;;;;16.17;11.77;;;;;;;;;;3583319;40;20281;-59
2021/06/26 00:15:29;;;;;;;12.27;11.00;;;;;;;;;;3582759;40;20041;-59
2021/06/26 00:17:54;;;;;;;12.10;10.90;;;;;;;;;;3584079;40;20056;-59
2021/06/26 00:20:20;;;;;;;11.57;10.48;;;;;;;;;;3582444;40;20037;-59
2021/06/26 00:22:45;;;;;;;13.32;11.68;;;;;;;;;;3581820;40;20037;-59
2021/06/26 00:25:11;;;;;;;17.83;11.80;;;;;;;;;;3585036;40;20036;-59
2021/06/26 00:27:37;;;;;;;13.00;10.75;;;;;;;;;;3584441;40;20142;-59
2021/06/26 00:30:03;;;;;;;13.00;10.63;;;;;;;;;;3583259;40;20352;-59
2021/06/26 00:32:28;;;;;;;14.15;11.40;;;;;;;;;;3582517;40;20384;-59
2021/06/26 00:34:54;;;;;;;12.68;10.65;;;;;;;;;;3583987;40;20084;-59
2021/06/26 00:37:19;;;;;;;11.00;9.88;;;;;;;;;;3585597;40;20039;-59
2021/06/26 00:39:45;;;;;;;11.05;9.82;;;;;;;;;;3580994;40;20568;-59
2021/06/26 00:42:10;;;;;;;10.35;9.30;;;;;;;;;;3582278;40;20060;-59
2021/06/26 00:44:36;;;;;;;9.90;9.00;;;;;;;;;;3581733;40;20146;-59
2021/06/26 00:47:05;;;;;;;10.57;9.52;;;;;;;;;;3583206;40;20037;-59
2021/06/26 00:49:30;;;;;;;11.95;10.73;;;;;;;;;;3574027;40;20049;-59
2021/06/26 00:51:56;;;;;;;11.80;10.60;;;;;;;;;;3583724;40;20548;-59
2021/06/26 00:54:21;;;;;;;13.32;10.60;;;;;;;;;;3582950;40;20052;-58
2021/06/26 00:56:47;;;;;;;16.85;12.25;;;;;;;;;;3584196;40;20057;-59
2021/06/26 00:59:14;;;;;;;12.40;10.75;;;;;;;;;;3583959;40;20047;-59
2021/06/26 01:01:40;;;;;;;12.10;10.52;;;;;;;;;;3583772;40;20064;-59
2021/06/26 01:04:05;;;;;;;13.27;11.55;;;;;;;;;;3584346;40;20032;-59
2021/06/26 01:06:31;;;;;;;12.38;10.88;;;;;;;;;;3582653;40;20060;-59
2021/06/26 01:08:56;;;;;;;12.65;10.45;;;;;;;;;;3583598;40;20040;-59
2021/06/26 01:11:21;;;;;;;11.95;10.80;;;;;;;;;;3584870;40;20044;-59
2021/06/26 01:13:47;;;;;;;12.73;11.32;;;;;;;;;;3583628;40;20049;-59
2021/06/26 01:16:12;;;;;;;12.35;11.05;;;;;;;;;;3581648;40;20048;-59
2021/06/26 01:18:38;;;;;;;15.75;11.45;;;;;;;;;;3581497;40;20048;-59
2021/06/26 01:21:03;;;;;;;16.35;13.48;;;;;;;;;;3582553;40;20025;-59
2021/06/26 01:23:29;;;;;;;13.82;11.68;;;;;;;;;;3584797;40;20039;-59
2021/06/26 01:25:55;;;;;;;13.68;12.30;;;;;;;;;;3575109;40;20048;-59
2021/06/26 01:28:20;;;;;;;13.70;12.30;;;;;;;;;;3582612;40;20033;-59
2021/06/26 01:30:45;;;;;;;17.15;13.15;;;;;;;;;;3583901;40;20089;-59
2021/06/26 01:33:11;;;;;;;14.85;12.57;;;;;;;;;;3584117;40;20037;-59
2021/06/26 01:35:36;;;;;;;14.15;12.43;;;;;;;;;;3583742;40;20080;-59
2021/06/26 01:38:03;;;;;;;15.40;13.88;;;;;;;;;;3583140;40;20064;-60
2021/06/26 01:40:29;;;;;;;15.25;13.48;;;;;;;;;;3584003;40;20036;-60
2021/06/26 01:42:55;;;;;;;15.18;13.15;;;;;;;;;;3582909;40;20020;-60
2021/06/26 01:45:22;;;;;;;14.90;13.02;;;;;;;;;;3582839;40;20044;-59
2021/06/26 01:47:56;;;;;;;15.13;12.60;;;;;;;;;;3583491;40;20384;-59
2021/06/26 01:50:24;;;;;;;16.27;12.82;;;;;;;;;;3583675;40;20048;-60
2021/06/26 01:52:50;;;;;;;15.63;12.85;;;;;;;;;;3583019;40;20086;-60
2021/06/26 01:55:17;;;;;;;17.77;12.60;;;;;;;;;;3583310;40;20037;-60
2021/06/26 01:57:43;;;;;;;17.98;12.15;;;;;;;;;;3583867;40;20130;-60
2021/06/26 02:00:10;;;;;;;15.88;11.98;;;;;;;;;;3579706;40;20069;-59
2021/06/26 02:02:36;;;;;;;12.48;11.15;;;;;;;;;;3583069;40;20048;-59
2021/06/26 02:05:06;;;;;;;17.65;11.65;;;;;;;;;;3582039;40;20303;-59
2021/06/26 02:07:31;;;;;;;12.68;11.30;;;;;;;;;;3583876;40;20080;-59
2021/06/26 02:09:57;;;;;;;11.93;10.73;;;;;;;;;;3581584;40;20060;-59
2021/06/26 02:12:23;;;;;;;16.48;10.93;;;;;;;;;;3581275;40;20039;-60
2021/06/26 02:14:48;;;;;;;14.40;11.52;;;;;;;;;;3580831;40;20080;-60
2021/06/26 02:17:14;;;;;;;12.75;11.38;;;;;;;;;;3581660;40;20296;-60
2021/06/26 02:19:39;;;;;;;13.75;12.02;;;;;;;;;;3582724;40;20134;-60
2021/06/26 02:22:04;;;;;;;14.38;12.98;;;;;;;;;;3582347;40;20409;-60
2021/06/26 02:24:30;;;;;;;14.70;12.18;;;;;;;;;;3584569;40;20036;-60
2021/06/26 02:26:55;;;;;;;14.77;11.93;;;;;;;;;;3582951;40;20044;-60
2021/06/26 02:29:21;;;;;;;14.95;12.40;;;;;;;;;;3581860;40;20041;-60
2021/06/26 02:31:46;;;;;;;18.25;12.25;;;;;;;;;;3572272;40;20037;-61
2021/06/26 02:34:15;;;;;;;14.73;13.32;;;;;;;;;;3581951;40;20073;-61
2021/06/26 02:36:41;;;;;;;16.63;14.85;;;;;;;;;;3582147;40;20711;-60
2021/06/26 02:39:07;;;;;;;14.60;13.00;;;;;;;;;;3581653;40;20045;-60
2021/06/26 02:41:32;;;;;;;14.85;13.43;;;;;;;;;;3582110;40;20126;-60
2021/06/26 02:43:58;;;;;;;15.27;13.65;;;;;;;;;;3582176;40;20138;-61
2021/06/26 02:46:23;;;;;;;17.23;14.13;;;;;;;;;;3579924;40;20454;-61
2021/06/26 02:48:49;;;;;;;15.50;13.95;;;;;;;;;;3583045;40;20056;-61
2021/06/26 02:51:14;;;;;;;23.38;16.63;;;;;;;;;;3582996;40;20053;-61
2021/06/26 02:53:40;;;;;;;20.15;13.77;;;;;;;;;;3576361;40;20052;-61
2021/06/26 02:56:05;;;;;;;21.92;12.18;;;;;;;;;;3580610;40;20048;-61
2021/06/26 02:58:31;;;;;;;21.13;13.23;;;;;;;;;;3583368;40;20063;-61
2021/06/26 03:00:56;;;;;;;15.25;13.73;;;;;;;;;;3582630;40;20163;-61
2021/06/26 03:03:22;;;;;;;18.52;15.82;;;;;;;;;;3580565;40;20071;-61
2021/06/26 03:05:47;;;;;;;18.05;16.25;;;;;;;;;;3580348;40;20040;-62
2021/06/26 03:08:13;;;;;;;15.98;14.32;;;;;;;;;;3582963;40;20051;-61
2021/06/26 03:10:38;;;;;;;18.17;14.95;;;;;;;;;;3581992;40;20040;-61
2021/06/26 03:13:04;;;;;;;17.48;14.48;;;;;;;;;;3583712;40;20049;-61
2021/06/26 03:15:29;;;;;;;16.75;15.18;;;;;;;;;;3582172;40;20025;-61
2021/06/26 03:17:55;;;;;;;15.32;13.82;;;;;;;;;;3582849;40;20033;-61
2021/06/26 03:20:20;;;;;;;15.50;13.90;;;;;;;;;;3584378;40;20037;-61
2021/06/26 03:22:46;;;;;;;14.40;12.68;;;;;;;;;;3582889;40;20045;-60
2021/06/26 03:25:13;;;;;;;13.73;12.30;;;;;;;;;;3584927;40;20033;-60
2021/06/26 03:27:40;;;;;;;13.57;12.07;;;;;;;;;;3577684;40;20028;-60
2021/06/26 03:30:06;;;;;;;15.98;12.27;;;;;;;;;;3583248;40;20029;-60
2021/06/26 03:32:32;;;;;;;14.05;11.25;;;;;;;;;;3583907;40;20029;-60
2021/06/26 03:34:58;;;;;;;14.40;12.98;;;;;;;;;;3584084;40;20280;-61
2021/06/26 03:37:24;;;;;;;20.67;12.85;;;;;;;;;;3582211;40;20043;-61
2021/06/26 03:39:49;;;;;;;13.57;12.18;;;;;;;;;;3582687;40;20021;-61
2021/06/26 03:42:15;;;;;;;17.27;12.10;;;;;;;;;;3581502;40;20024;-61
2021/06/26 03:44:40;;;;;;;18.02;13.93;;;;;;;;;;3581867;40;20032;-61
2021/06/26 03:47:06;;;;;;;13.38;12.18;;;;;;;;;;3582400;40;20060;-61
2021/06/26 03:49:35;;;;;;;18.48;12.85;;;;;;;;;;3580633;40;20041;-61
2021/06/26 03:52:00;;;;;;;13.45;12.05;;;;;;;;;;3581751;40;20029;-61
2021/06/26 03:54:27;;;;;;;15.00;13.57;;;;;;;;;;3583776;40;20029;-61
2021/06/26 03:56:52;;;;;;;14.93;12.88;;;;;;;;;;3583150;40;20033;-61
2021/06/26 03:59:18;;;;;;;14.18;12.73;;;;;;;;;;3581277;40;20032;-61
2021/06/26 04:01:43;;;;;;;16.15;12.23;;;;;;;;;;3583603;40;20051;-61
2021/06/26 04:04:08;;;;;;;14.35;12.95;;;;;;;;;;3585086;40;20032;-61
2021/06/26 04:06:34;;;;;;;15.13;13.30;;;;;;;;;;3582983;40;20055;-61
2021/06/26 04:08:59;;;;;;;14.05;12.52;;;;;;;;;;3583726;40;20085;-61
2021/06/26 04:11:25;;;;;;;15.98;13.23;;;;;;;;;;3581585;40;20169;-61
2021/06/26 04:13:50;;;;;;;25.08;13.60;;;;;;;;;;3581599;40;20029;-61
2021/06/26 04:16:16;;;;;;;14.38;12.95;;;;;;;;;;3582317;40;20041;-61
2021/06/26 04:18:41;;;;;;;14.15;12.85;;;;;;;;;;3584699;40;20037;-61
2021/06/26 04:21:07;;;;;;;14.48;12.50;;;;;;;;;;3583930;40;20260;-61
2021/06/26 04:23:32;;;;;;;16.50;13.18;;;;;;;;;;3583516;40;20040;-61
2021/06/26 04:25:57;;;;;;;13.70;11.90;;;;;;;;;;3583620;40;20035;-61
2021/06/26 04:28:23;;;;;;;13.95;12.55;;;;;;;;;;3585235;40;20298;-61
2021/06/26 04:30:48;;;;;;;14.80;13.30;;;;;;;;;;3584184;40;20044;-61
2021/06/26 04:33:14;;;;;;;25.50;13.02;;;;;;;;;;3582637;40;20040;-61
2021/06/26 04:35:40;;;;;;;14.77;12.90;;;;;;;;;;3582872;40;20525;-61
2021/06/26 04:38:05;;;;;;;16.30;13.25;;;;;;;;;;3582547;40;20040;-61
2021/06/26 04:40:31;;;;;;;15.63;14.13;;;;;;;;;;3583373;40;20029;-61
2021/06/26 04:42:56;;;;;;;17.70;13.35;;;;;;;;;;3581834;40;20045;-61
2021/06/26 04:45:22;;;;;;;17.23;15.63;;;;;;;;;;3582882;40;20033;-61
2021/06/26 04:47:47;;;;;;;15.98;14.52;;;;;;;;;;3583154;40;20056;-61
2021/06/26 04:50:13;;;;;;;17.30;15.32;;;;;;;;;;3583532;40;20048;-61
2021/06/26 04:52:40;;;;;;;18.02;16.17;;;;;;;;;;3573029;40;20055;-61
2021/06/26 04:55:07;;;;;;;19.75;15.30;;;;;;;;;;3570990;40;20417;-61
2021/06/26 04:57:33;;;;;;;16.60;14.90;;;;;;;;;;3584398;40;20076;-61
2021/06/26 04:59:58;;;;;;;23.75;14.98;;;;;;;;;;3582470;40;20493;-61
2021/06/26 05:02:24;;;;;;;17.75;15.98;;;;;;;;;;3582409;40;20052;-61
2021/06/26 05:04:49;;;;;;;17.38;14.70;;;;;;;;;;3579349;40;20379;-61
2021/06/26 05:07:14;;;;;;;17.30;14.77;;;;;;;;;;3583229;40;20045;-61
2021/06/26 05:09:40;;;;;;;15.68;14.10;;;;;;;;;;3584511;40;20612;-61
2021/06/26 05:12:06;;;;;;;15.02;13.40;;;;;;;;;;3584873;40;20033;-61
2021/06/26 05:14:32;;;;;;;15.55;14.15;;;;;;;;;;3581534;40;20641;-61
2021/06/26 05:16:58;;;;;;;21.63;16.15;;;;;;;;;;3583231;40;20036;-61
2021/06/26 05:19:24;;;;;;;16.05;14.23;;;;;;;;;;3584193;40;20238;-61
2021/06/26 05:21:49;;;;;;;15.57;14.02;;;;;;;;;;3581059;40;20185;-61
2021/06/26 05:24:15;;;;;;;16.50;14.88;;;;;;;;;;3582122;40;20044;-61
2021/06/26 05:26:41;;;;;;;18.40;14.68;;;;;;;;;;3582232;40;20052;-61
2021/06/26 05:29:07;;;;;;;16.88;14.18;;;;;;;;;;3583239;40;20044;-61
2021/06/26 05:31:32;;;;;;;18.08;15.38;;;;;;;;;;3584367;40;20423;-61
2021/06/26 05:33:58;;;;;;;19.35;15.35;;;;;;;;;;3583954;40;20036;-61
2021/06/26 05:36:23;;;;;;;16.90;15.20;;;;;;;;;;3581430;40;20053;-60
2021/06/26 05:38:49;;;;;;;20.33;17.23;;;;;;;;;;3581646;40;20049;-60
2021/06/26 05:41:15;;;;;;;19.77;17.05;;;;;;;;;;3582144;40;20029;-60
2021/06/26 05:43:40;;;;;;;20.48;17.25;;;;;;;;;;3582195;40;20362;-60
2021/06/26 05:46:06;;;;;;;20.13;18.13;;;;;;;;;;3583634;40;20099;-60
2021/06/26 05:48:31;;;;;;;23.90;19.33;;;;;;;;;;3581703;40;20386;-60
2021/06/26 05:50:57;;;;;;;21.55;19.38;;;;;;;;;;3583504;40;20162;-60
2021/06/26 05:53:22;;;;;;;23.55;19.83;;;;;;;;;;3573027;40;20063;-60
2021/06/26 05:55:56;;;;;;;22.05;19.75;;;;;;;;;;3583506;40;20212;-60
2021/06/26 05:58:33;;;;;;;23.58;21.08;;;;;;;;;;3582670;40;20037;-60
2021/06/26 06:01:00;;;;;;;24.92;22.52;;;;;;;;;;3581838;40;20032;-60
2021/06/26 06:03:26;;;;;;;22.38;20.17;;;;;;;;;;3582718;40;20044;-61
2021/06/26 06:05:52;;;;;;;20.40;18.45;;;;;;;;;;3584174;40;20397;-60
2021/06/26 06:08:21;;;;;;;19.33;17.42;;;;;;;;;;3580833;40;20132;-62
2021/06/26 06:10:47;;;;;;;18.92;17.15;;;;;;;;;;3581438;40;20052;-61
2021/06/26 06:13:18;;;;;;;18.52;16.60;;;;;;;;;;3580463;40;20037;-62
2021/06/26 06:15:45;;;;;;;21.35;18.02;;;;;;;;;;3581937;40;20523;-61
2021/06/26 06:18:11;;;;;;;17.85;16.10;;;;;;;;;;3579225;40;20033;-61
2021/06/26 06:20:37;;;;;;;19.23;17.23;;;;;;;;;;3579720;40;20091;-61
2021/06/26 06:23:03;;;;;;;21.17;17.08;;;;;;;;;;3580665;40;20441;-61
2021/06/26 06:25:29;;;;;;;19.15;16.00;;;;;;;;;;3582026;40;20134;-61
2021/06/26 06:27:55;;;;;;;16.17;14.65;;;;;;;;;;3583755;40;20044;-61
2021/06/26 06:30:20;;;;;;;15.95;14.32;;;;;;;;;;3584030;40;20028;-61
2021/06/26 06:32:47;;;;;;;16.73;14.95;;;;;;;;;;3581409;40;20031;-61
2021/06/26 06:35:12;;;;;;;17.23;15.50;;;;;;;;;;3583361;40;20036;-61
2021/06/26 06:37:38;;;;;;;16.60;15.00;;;;;;;;;;3581783;40;20029;-61
2021/06/26 06:40:05;;;;;;;19.40;15.93;;;;;;;;;;3582233;40;20072;-61
2021/06/26 06:42:32;;;;;;;17.52;15.10;;;;;;;;;;3582432;40;20052;-60
2021/06/26 06:44:57;;;;;;;16.95;15.25;;;;;;;;;;3582557;40;20037;-60
2021/06/26 06:47:23;;;;;;;19.25;14.73;;;;;;;;;;3583680;40;20271;-61
2021/06/26 06:49:48;;;;;;;16.80;14.77;;;;;;;;;;3586546;40;20356;-60
2021/06/26 06:52:13;;;;;;;17.05;15.27;;;;;;;;;;3585457;40;20044;-61
2021/06/26 06:54:39;;;;;;;16.73;13.40;;;;;;;;;;3583880;40;20033;-61
2021/06/26 06:57:05;;;;;;;15.77;14.18;;;;;;;;;;3583413;40;20048;-61
2021/06/26 06:59:30;;;;;;;16.00;13.05;;;;;;;;;;3585306;40;20077;-60
2021/06/26 07:01:57;;;;;;;13.45;12.13;;;;;;;;;;3577169;40;20032;-60
2021/06/26 07:04:23;;;;;;;15.38;11.98;;;;;;;;;;3575029;40;20041;-60
2021/06/26 07:06:48;;;;;;;14.40;11.10;;;;;;;;;;3582880;40;20244;-60
2021/06/26 07:09:14;;;;;;;11.60;10.40;;;;;;;;;;3583443;40;20380;-60
2021/06/26 07:11:39;;;;;;;11.45;9.32;;;;;;;;;;3584703;40;20044;-60
2021/06/26 07:14:05;;;;;;;14.68;10.55;;;;;;;;;;3585441;40;20376;-61
2021/06/26 07:16:30;;;;;;;15.50;10.82;;;;;;;;;;3583434;40;20061;-60
2021/06/26 07:18:55;;;;;;;17.33;13.45;;;;;;;;;;3583836;40;20364;-60
2021/06/26 07:21:21;;;;;;;18.85;14.27;;;;;;;;;;3582885;40;20057;-60
2021/06/26 07:23:46;;;;;;;13.80;11.85;;;;;;;;;;3582906;40;20044;-60
2021/06/26 07:26:12;;;;;;;13.00;11.75;;;;;;;;;;3583943;40;20033;-60
2021/06/26 07:28:37;;;;;;;16.17;11.50;;;;;;;;;;3582321;40;20032;-60
2021/06/26 07:31:03;;;;;;;16.23;11.45;;;;;;;;;;3583390;40;20025;-59
2021/06/26 07:33:28;;;;;;;12.23;10.93;;;;;;;;;;3583503;40;20264;-60
2021/06/26 07:35:54;;;;;;;11.98;9.90;;;;;;;;;;3582548;40;20158;-59
2021/06/26 07:38:21;;;;;;;10.07;9.18;;;;;;;;;;3581923;40;20053;-60
2021/06/26 07:40:47;;;;;;;12.27;10.20;;;;;;;;;;3583993;40;20037;-59
2021/06/26 07:43:12;;;;;;;10.00;8.98;;;;;;;;;;3576561;40;20041;-59
2021/06/26 07:45:38;;;;;;;12.82;9.50;;;;;;;;;;3583082;40;20055;-59
2021/06/26 07:48:03;;;;;;;13.55;9.77;;;;;;;;;;3583874;40;20037;-59
2021/06/26 07:50:29;;;;;;;15.43;10.20;;;;;;;;;;3584767;40;20029;-59
2021/06/26 07:52:54;;;;;;;17.45;10.07;;;;;;;;;;3582374;40;20048;-60
2021/06/26 07:55:20;;;;;;;9.93;8.95;;;;;;;;;;3573461;40;20052;-60
2021/06/26 07:57:45;;;;;;;9.70;8.52;;;;;;;;;;3576950;40;20137;-60
2021/06/26 08:00:11;;;;;;;8.55;7.65;;;;;;;;;;3583601;40;20080;-60
2021/06/26 08:02:37;;;;;;;10.02;8.25;;;;;;;;;;3581992;40;20568;-59
2021/06/26 08:05:03;;;;;;;10.55;7.30;;;;;;;;;;3583349;40;20036;-60
2021/06/26 08:07:28;;;;;;;9.75;8.75;;;;;;;;;;3574014;40;20261;-59
2021/06/26 08:09:54;;;;;;;9.23;8.18;;;;;;;;;;3582652;40;20094;-59
2021/06/26 08:12:19;;;;;;;10.07;9.07;;;;;;;;;;3579569;40;20044;-60
2021/06/26 08:14:45;;;;;;;8.95;8.05;;;;;;;;;;3582707;40;20033;-61
2021/06/26 08:17:11;;;;;;;9.95;8.93;;;;;;;;;;3577578;40;20071;-59
2021/06/26 08:19:37;;;;;;;10.93;8.82;;;;;;;;;;3584440;40;20033;-61
2021/06/26 08:22:04;;;;;;;9.80;7.93;;;;;;;;;;3581488;40;20028;-59
2021/06/26 08:24:30;;;;;;;10.18;8.30;;;;;;;;;;3585162;40;20702;-60
2021/06/26 08:26:55;;;;;;;9.10;6.32;;;;;;;;;;3584230;40;20049;-60
2021/06/26 08:29:21;;;;;;;7.70;6.18;;;;;;;;;;3583347;40;20411;-59
2021/06/26 08:31:46;;;;;;;11.25;7.35;;;;;;;;;;3582825;40;20393;-59
2021/06/26 08:34:12;;;;;;;9.73;7.32;;;;;;;;;;3584058;40;20162;-59
2021/06/26 08:36:37;;;;;;;10.30;7.53;;;;;;;;;;3583811;40;20035;-60
2021/06/26 08:39:03;;;;;;;10.30;6.28;;;;;;;;;;3583607;40;20045;-59
2021/06/26 08:41:38;;;;;;;10.35;7.20;;;;;;;;;;3583746;40;20033;-60
2021/06/26 08:44:05;;;;;;;6.07;5.07;;;;;;;;;;3573277;40;20033;-60
2021/06/26 08:46:32;;;;;;;6.85;5.68;;;;;;;;;;3580657;40;20030;-59
2021/06/26 08:48:58;;;;;;;7.53;5.50;;;;;;;;;;3572394;40;20067;-59
2021/06/26 08:51:23;;;;;;;6.10;4.90;;;;;;;;;;3573976;40;20036;-58
2021/06/26 08:53:49;;;;;;;12.60;5.72;;;;;;;;;;3582869;40;20326;-57
2021/06/26 08:56:14;;;;;;;6.68;5.32;;;;;;;;;;3583294;40;20048;-59
2021/06/26 08:58:40;;;;;;;8.60;5.47;;;;;;;;;;3584036;40;20041;-59
2021/06/26 09:01:05;;;;;;;7.28;5.22;;;;;;;;;;3584882;40;20399;-59
2021/06/26 09:03:30;;;;;;;7.63;5.82;;;;;;;;;;3583341;40;20044;-57
2021/06/26 09:06:06;;;;;;;9.43;5.53;;;;;;;;;;3576378;40;20040;-58
2021/06/26 09:08:32;;;;;;;7.25;5.38;;;;;;;;;;3583380;40;20044;-58
2021/06/26 09:10:58;;;;;;;7.90;5.30;;;;;;;;;;3576557;40;20063;-57
2021/06/26 09:13:26;;;;;;;6.85;5.28;;;;;;;;;;3576235;40;20052;-58
2021/06/26 09:16:11;;;;;;;7.93;5.57;;;;;;;;;;3585360;40;20092;-57
2021/06/26 09:18:42;;;;;;;6.05;4.60;;;;;;;;;;3575829;40;20329;-57
2021/06/26 09:21:35;;;;;;;7.50;4.88;;;;;;;;;;3583131;40;20533;-58
2021/06/26 09:24:10;;;;;;;5.75;4.43;;;;;;;;;;3580109;40;20044;-59
2021/06/26 09:26:57;;;;;;;13.95;4.55;;;;;;;;;;3580331;40;20025;-59
2021/06/26 09:29:23;;;;;;;6.25;5.20;;;;;;;;;;3575463;40;20045;-58
2021/06/26 09:31:49;;;;;;;6.53;5.00;;;;;;;;;;3583100;40;20030;-59
2021/06/26 09:34:15;;;;;;;7.43;5.07;;;;;;;;;;3582016;40;20257;-59
2021/06/26 09:36:40;;;;;;;6.18;4.90;;;;;;;;;;3582480;40;20040;-60
2021/06/26 09:39:07;;;;;;;9.38;5.50;;;;;;;;;;3584021;40;20033;-59
2021/06/26 09:41:33;;;;;;;7.18;4.82;;;;;;;;;;3583480;40;20047;-60
2021/06/26 09:44:12;;;;;;;5.15;3.72;;;;;;;;;;3583664;40;20033;-59
2021/06/26 09:46:49;;;;;;;5.73;4.27;;;;;;;;;;3583860;40;20040;-59
2021/06/26 09:49:14;;;;;;;5.93;4.72;;;;;;;;;;3581022;40;20078;-59
2021/06/26 09:51:40;;;;;;;5.22;4.03;;;;;;;;;;3581191;40;20608;-60
2021/06/26 09:54:08;;;;;;;6.07;4.65;;;;;;;;;;3583519;40;20029;-60
2021/06/26 09:56:47;;;;;;;6.00;4.57;;;;;;;;;;3583765;40;20068;-60
2021/06/26 09:59:17;;;;;;;6.95;4.97;;;;;;;;;;3585319;40;20036;-60
2021/06/26 10:01:46;;;;;;;6.05;4.43;;;;;;;;;;3581029;40;20060;-60
2021/06/26 10:04:13;;;;;;;7.53;4.55;;;;;;;;;;3583340;40;20036;-59
2021/06/26 10:06:39;;;;;;;4.95;3.92;;;;;;;;;;3584266;40;20540;-60
2021/06/26 10:09:06;;;;;;;8.55;4.85;;;;;;;;;;3584628;40;20044;-60
2021/06/26 10:11:33;;;;;;;6.07;4.68;;;;;;;;;;3580970;40;20138;-60
2021/06/26 10:14:05;;;;;;;7.22;4.22;;;;;;;;;;3583780;40;20033;-60
2021/06/26 10:16:32;;;;;;;9.00;5.05;;;;;;;;;;3576449;40;20162;-60
2021/06/26 10:19:05;;;;;;;6.65;4.82;;;;;;;;;;3583577;40;20029;-60
2021/06/26 10:21:32;;;;;;;5.90;4.70;;;;;;;;;;3576399;40;20037;-59
2021/06/26 10:24:00;;;;;;;6.10;4.95;;;;;;;;;;3582232;40;20394;-60
2021/06/26 10:26:26;;;;;;;7.50;4.82;;;;;;;;;;3581698;40;20048;-59
2021/06/26 10:28:59;;;;;;;9.25;4.35;;;;;;;;;;3583493;40;20117;-60
2021/06/26 10:31:30;;;;;;;5.20;4.43;;;;;;;;;;3582843;40;20054;-60
2021/06/26 10:34:06;;;;;;;;;;;;;;;;;;3581755;40;20040;-60
2021/06/26 10:36:33;;;;;;;6.45;4.38;;;;;;;;;;3581674;40;19948;-60
2021/06/26 10:38:58;;;;;;;6.47;4.18;;;;;;;;;;3582868;40;20081;-60
2021/06/26 10:41:23;;;;;;;6.90;3.97;;;;;;;;;;3573823;40;20037;-60
2021/06/26 10:43:57;;;;;;;6.38;4.00;;;;;;;;;;3582109;40;20036;-59
2021/06/26 10:46:23;;;;;;;5.15;4.00;;;;;;;;;;3582781;40;20025;-59
2021/06/26 10:49:05;;;;;;;10.38;4.45;;;;;;;;;;3574847;40;20047;-60
2021/06/26 10:51:38;;;;;;;5.85;4.20;;;;;;;;;;3584287;40;20152;-59
2021/06/26 10:54:15;;;;;;;6.72;4.38;;;;;;;;;;3579910;40;20381;-59
2021/06/26 10:56:43;;;;;;;5.13;4.15;;;;;;;;;;3581270;40;20110;-59
2021/06/26 10:59:17;;;;;;;5.32;4.30;;;;;;;;;;3582854;40;20075;-59
2021/06/26 11:01:55;;;;;;;8.93;4.13;;;;;;;;;;3583432;40;20036;-60
2021/06/26 11:04:21;;;;;;;6.10;4.47;;;;;;;;;;3571127;40;20037;-59
2021/06/26 11:06:50;;;;;;;5.82;4.53;;;;;;;;;;3581580;40;20048;-59
2021/06/26 11:09:16;;;;;;;6.63;3.80;;;;;;;;;;3573646;40;20041;-59
2021/06/26 11:11:50;;;;;;;6.15;4.40;;;;;;;;;;3579950;40;20041;-59
2021/06/26 11:14:24;;;;;;;9.98;4.38;;;;;;;;;;3582413;40;20029;-59
2021/06/26 11:16:54;;;;;;;6.43;4.35;;;;;;;;;;3577262;40;20052;-59
2021/06/26 11:19:21;;;;;;;6.25;3.83;;;;;;;;;;3580880;40;20036;-59
2021/06/26 11:21:52;;;;;;;6.47;4.00;;;;;;;;;;3581858;40;20302;-59
2021/06/26 11:24:30;;;;;;;6.93;4.10;;;;;;;;;;3582945;40;20051;-59
2021/06/26 11:26:56;;;;;;;6.60;4.10;;;;;;;;;;3580048;40;20029;-58
2021/06/26 11:29:33;;;;;;;7.97;4.55;;;;;;;;;;3580002;40;20275;-59
2021/06/26 11:32:01;;;;;;;6.18;4.18;;;;;;;;;;3577823;40;20062;-60
2021/06/26 11:34:27;;;;;;;6.32;4.50;;;;;;;;;;3577459;40;20368;-59
2021/06/26 11:37:00;;;;;;;4.65;3.83;;;;;;;;;;3584583;40;20065;-59
2021/06/26 11:39:26;;;;;;;13.40;3.95;;;;;;;;;;3582643;40;20055;-59
2021/06/26 11:41:52;;;;;;;7.95;3.65;;;;;;;;;;3582416;40;20078;-59
2021/06/26 11:44:17;;;;;;;6.22;4.00;;;;;;;;;;3583161;40;20123;-60
2021/06/26 11:46:43;;;;;;;7.07;3.58;;;;;;;;;;3584143;40;20040;-60
2021/06/26 11:49:08;;;;;;;5.63;3.88;;;;;;;;;;3583390;40;20044;-60
2021/06/26 11:51:34;;;;;;;5.82;3.70;;;;;;;;;;3583723;40;20380;-60
2021/06/26 11:53:59;;;;;;;7.50;4.03;;;;;;;;;;3584739;40;20048;-62
2021/06/26 11:56:25;;;;;;;8.07;3.90;;;;;;;;;;3583546;40;20053;-62
2021/06/26 11:58:52;;;;;;;5.35;4.25;;;;;;;;;;3584119;40;20072;-62
2021/06/26 12:01:25;;;;;;;6.57;4.13;;;;;;;;;;3582117;40;20288;-62
2021/06/26 12:03:51;;;;;;;7.43;4.30;;;;;;;;;;3584113;40;20396;-62
2021/06/26 12:06:17;;;;;;;5.10;3.92;;;;;;;;;;3583474;40;20323;-62
2021/06/26 12:08:46;;;;;;;4.80;3.53;;;;;;;;;;3584668;40;20036;-63
2021/06/26 12:11:17;;;;;;;5.40;3.88;;;;;;;;;;3574478;40;20284;-62
2021/06/26 12:13:45;;;;;;;5.22;3.78;;;;;;;;;;3582992;40;20032;-62
2021/06/26 12:16:18;;;;;;;5.18;3.80;;;;;;;;;;3581721;40;20036;-62
2021/06/26 12:18:48;;;;;;;4.32;3.53;;;;;;;;;;3583242;40;20041;-62
2021/06/26 12:21:13;;;;;;;4.63;3.53;;;;;;;;;;3584973;40;20129;-62
2021/06/26 12:23:47;;;;;;;7.70;4.18;;;;;;;;;;3581659;40;20072;-62
2021/06/26 12:26:21;;;;;;;5.05;4.00;;;;;;;;;;3583759;40;20127;-63
2021/06/26 12:28:47;;;;;;;4.55;3.80;;;;;;;;;;3583045;40;20033;-62
2021/06/26 12:31:13;;;;;;;5.03;3.65;;;;;;;;;;3581008;40;20032;-61
2021/06/26 12:33:39;;;;;;;8.70;3.88;;;;;;;;;;3582417;40;20024;-62
2021/06/26 12:36:16;;;;;;;4.63;3.72;;;;;;;;;;3582373;40;20041;-62
2021/06/26 12:38:42;;;;;;;4.30;3.42;;;;;;;;;;3581512;40;20066;-62
2021/06/26 12:41:24;;;;;;;10.02;3.55;;;;;;;;;;3582037;40;20375;-62
2021/06/26 12:43:49;;;;;;;5.43;3.78;;;;;;;;;;3582642;40;20384;-62
2021/06/26 12:46:16;;;;;;;7.63;3.35;;;;;;;;;;3583550;40;20077;-62
2021/06/26 12:48:50;;;;;;;4.63;3.50;;;;;;;;;;3581371;40;20052;-62
2021/06/26 12:51:17;;;;;;;6.45;3.67;;;;;;;;;;3581473;40;20047;-62
2021/06/26 12:53:47;;;;;;;4.78;3.58;;;;;;;;;;3581272;40;20371;-62
2021/06/26 12:56:25;;;;;;;4.85;3.60;;;;;;;;;;3580478;40;20448;-62
2021/06/26 12:58:55;;;;;;;6.55;3.78;;;;;;;;;;3580648;40;20513;-62
2021/06/26 13:01:33;;;;;;;5.22;4.10;;;;;;;;;;3580171;40;20065;-62
2021/06/26 13:03:58;;;;;;;6.50;3.88;;;;;;;;;;3583943;40;20035;-62
2021/06/26 13:06:23;;;;;;;4.70;3.53;;;;;;;;;;3581980;40;20033;-62
2021/06/26 13:08:54;;;;;;;6.22;3.80;;;;;;;;;;3582422;40;20061;-62
2021/06/26 13:11:39;;;;;;;4.55;3.63;;;;;;;;;;3575152;40;20051;-62
2021/06/26 13:14:07;;;;;;;5.68;3.75;;;;;;;;;;3583479;40;20036;-61
2021/06/26 13:16:34;;;;;;;5.20;3.95;;;;;;;;;;3583195;40;20041;-62
2021/06/26 13:19:00;;;;;;;4.60;3.72;;;;;;;;;;3581516;40;20053;-62
2021/06/26 13:21:26;;;;;;;6.95;3.50;;;;;;;;;;3583858;40;20133;-62
2021/06/26 13:23:55;;;;;;;6.43;3.88;;;;;;;;;;3583493;40;20366;-62
2021/06/26 13:26:21;;;;;;;7.68;3.95;;;;;;;;;;3583722;40;20121;-62
2021/06/26 13:28:46;;;;;;;8.45;4.47;;;;;;;;;;3582811;40;20050;-61
2021/06/26 13:31:12;;;;;;;10.93;3.88;;;;;;;;;;3573297;40;20036;-62
2021/06/26 13:33:37;;;;;;;4.47;3.28;;;;;;;;;;3581935;40;20127;-62
2021/06/26 13:36:03;;;;;;;9.80;4.30;;;;;;;;;;3583326;40;20044;-61
2021/06/26 13:38:28;;;;;;;5.65;3.90;;;;;;;;;;3582520;40;20103;-62
2021/06/26 13:40:54;;;;;;;5.78;3.55;;;;;;;;;;3579502;40;20039;-62
2021/06/26 13:43:19;;;;;;;4.55;3.30;;;;;;;;;;3582625;40;20079;-62
2021/06/26 13:45:46;;;;;;;4.60;3.63;;;;;;;;;;3579550;40;20379;-62
2021/06/26 13:48:12;;;;;;;5.28;3.45;;;;;;;;;;3579877;40;20056;-62
2021/06/26 13:50:39;;;;;;;4.13;3.20;;;;;;;;;;3578592;40;20052;-62
2021/06/26 13:53:04;;;;;;;6.90;3.50;;;;;;;;;;3581062;40;20630;-62
2021/06/26 13:55:30;;;;;;;4.43;3.53;;;;;;;;;;3580861;40;20072;-62
2021/06/26 13:57:55;;;;;;;4.82;3.55;;;;;;;;;;3581428;40;20041;-62
2021/06/26 14:00:21;;;;;;;5.45;3.85;;;;;;;;;;3582091;40;20040;-62
2021/06/26 14:02:46;;;;;;;5.30;4.50;;;;;;;;;;3580421;40;20138;-62
2021/06/26 14:05:12;;;;;;;4.43;3.70;;;;;;;;;;3581158;40;20368;-62
2021/06/26 14:07:38;;;;;;;6.05;4.50;;;;;;;;;;3584299;40;20033;-62
2021/06/26 14:10:05;;;;;;;6.20;4.25;;;;;;;;;;3582210;40;20048;-62
2021/06/26 14:12:31;;;;;;;5.07;4.20;;;;;;;;;;3583889;40;20796;-63
2021/06/26 14:14:56;;;;;;;7.63;3.95;;;;;;;;;;3582358;40;20049;-62
2021/06/26 14:17:22;;;;;;;5.05;3.88;;;;;;;;;;3583472;40;20045;-62
2021/06/26 14:19:47;;;;;;;5.07;3.47;;;;;;;;;;3583709;40;20036;-61
2021/06/26 14:22:13;;;;;;;4.43;3.60;;;;;;;;;;3580751;40;20048;-62
2021/06/26 14:24:38;;;;;;;4.30;3.08;;;;;;;;;;3581147;40;20697;-62
2021/06/26 14:27:04;;;;;;;4.65;3.40;;;;;;;;;;3581767;40;20032;-62